Terminal Aerodrome Forecast
Issued by NWS

Home | Current Version | Previous Version | Text Only | Print | Product List | Glossary On
Versions: 1 2 3 4 5 6 7 8 9 10 11 12 13 14 15 16 17 18 19 20 21
000
FTUS41 KOKX 160800 AAA
TAFSWF
TAF AMD
KSWF 160830Z 1609/1712 VRB04KT P6SM BKN040 BKN150
     FM161000 VRB02KT P6SM -SHRA BKN040 OVC100
     FM161400 VRB04KT P6SM BKN060 BKN100
     FM161900 30006KT P6SM SCT060 SCT150
     FM170100 VRB02KT P6SM SCT250
     FM170600 35004KT P6SM SCT250
      AMD NOT SKED=

USA.gov is the U.S. government's official web portal to all federal, state and local government web resources and services.